Poplar Arrow — C6TQ3 — position and weather

sailwx.info

Track history (hours):
 
Tides and Currents Weather Stations Pressure Air Temp Water Temp Dewpoint Dewpoint Depression Visibility Wind Speed Wind Dir Waves Ship Positions

Poplar Arrow

Last reported at 2014-Nov-23 09:33 UTC. Time now 2014-Nov-24 04:07 UTC.
Position N 31°05' E 122°30'.

Length 190 m; draft 8.4 m.

Type: Cargo ship. MMSI: 311744000.

Date/timePositionNaut miles runAvg speedWind from/ knotsBaromVisibWave heightAir tempDewpointWater temp
2014-Nov-23 09:33N 31°05' E 122°30'1212.0
2014-Nov-23 08:33N 31°07' E 122°16'1414.3
2014-Nov-23 07:34N 31°14' E 122°02'1414.1
2014-Nov-23 06:33N 31°18' E 121°46'1212.0
2014-Nov-23 05:33N 31°24' E 121°34'7 6.8
2014-Nov-23 04:33N 31°28' E 121°27'10 9.6
2014-Nov-23 03:33N 31°34' E 121°19'1212.2
2014-Nov-23 02:33N 31°42' E 121°08'7 7.0
2014-Nov-23 01:33N 31°47' E 121°02'0 0.0
2014-Nov-23 00:23N 31°47' E 121°02'0 0.0
2014-Nov-22 23:17N 31°47' E 121°02'0 0.0
2014-Nov-22 22:31N 31°47' E 121°02'0 0.0
2014-Nov-22 21:25N 31°47' E 121°02'0 0.0
2014-Nov-22 20:18N 31°47' E 121°02'0 0.1
2014-Nov-22 19:30N 31°47' E 121°02'0 0.0
2014-Nov-22 18:30N 31°47' E 121°02'0 0.0
2014-Nov-22 17:29N 31°47' E 121°02'0 0.0
2014-Nov-22 16:14N 31°47' E 121°02'0 0.0
2014-Nov-22 11:23N 31°47' E 121°02'0 0.1
2014-Nov-22 10:23N 31°47' E 121°02'0 0.1
2014-Nov-22 09:32N 31°47' E 121°02'4 3.8
2014-Nov-22 08:33N 31°47' E 120°57'1 0.7
2014-Nov-22 07:30N 31°46' E 120°57'0 0.0
2014-Nov-22 04:28N 31°46' E 120°57'0 0.0
2014-Nov-22 03:33N 31°46' E 120°57'0 0.0
2014-Nov-22 02:33N 31°46' E 120°57'0 0.0
2014-Nov-22 01:27N 31°46' E 120°57'0 0.0
2014-Nov-22 00:32N 31°46' E 120°57'0 0.0
2014-Nov-21 23:32N 31°46' E 120°57'0 0.0
2014-Nov-21 22:25N 31°46' E 120°57'0 0.0
2014-Nov-21 21:31N 31°46' E 120°57'0 0.0
2014-Nov-21 20:06N 31°46' E 120°57'0 0.0
2014-Nov-21 19:24N 31°46' E 120°57'0 0.0
2014-Nov-21 18:30N 31°46' E 120°57'0 0.0
2014-Nov-21 17:32N 31°46' E 120°57'0 0.0
2014-Nov-21 16:23N 31°46' E 120°57'0 0.0
2014-Nov-21 15:31N 31°46' E 120°57'0 0.0
2014-Nov-21 14:28N 31°46' E 120°57'0 0.0
2014-Nov-21 13:24N 31°46' E 120°57'0 0.0
2014-Nov-21 12:33N 31°46' E 120°57'0 0.0
2014-Nov-21 11:33N 31°46' E 120°57'0 0.0
2014-Nov-21 10:29N 31°46' E 120°57'0 0.0
2014-Nov-21 09:29N 31°46' E 120°57'0 0.0
2014-Nov-21 08:31N 31°46' E 120°57'0 0.0
2014-Nov-21 07:28N 31°46' E 120°57'0 0.0
2014-Nov-21 06:27N 31°46' E 120°57'0 0.0
2014-Nov-21 05:33N 31°46' E 120°57'0 0.0
2014-Nov-21 04:29N 31°46' E 120°57'0 0.0
2014-Nov-21 03:29N 31°46' E 120°57'0 0.0
2014-Nov-21 02:32N 31°46' E 120°57'0 0.0
2014-Nov-21 01:31N 31°46' E 120°57'0 0.0
2014-Nov-21 00:25N 31°46' E 120°57'0 0.0
2014-Nov-20 23:33N 31°46' E 120°57'0 0.0
2014-Nov-20 22:33N 31°46' E 120°57'0 0.0
2014-Nov-20 21:29N 31°46' E 120°57'0 0.0
2014-Nov-20 20:29N 31°46' E 120°57'0 0.0
2014-Nov-20 19:22N 31°46' E 120°57'0 0.0
2014-Nov-20 18:28N 31°46' E 120°57'0 0.0
2014-Nov-20 17:31N 31°46' E 120°57'0 0.0
2014-Nov-20 16:30N 31°46' E 120°57'0 0.0
2014-Nov-20 15:33N 31°46' E 120°57'0 0.0
2014-Nov-20 14:32N 31°46' E 120°57'0 0.0
2014-Nov-20 13:26N 31°46' E 120°57'0 0.0
2014-Nov-20 12:29N 31°46' E 120°57'0 0.0
2014-Nov-20 11:31N 31°46' E 120°57'0 0.0
2014-Nov-20 10:28N 31°46' E 120°57'0 0.0
2014-Nov-20 09:34N 31°46' E 120°57'0 0.0
2014-Nov-20 08:30N 31°46' E 120°57'0 0.2
2014-Nov-20 07:23N 31°46' E 120°57'0 0.0
2014-Nov-20 06:31N 31°46' E 120°57'0 0.0
2014-Nov-20 05:13N 31°46' E 120°57'0 0.0
2014-Nov-20 04:21N 31°46' E 120°57'0 0.0
2014-Nov-20 03:27N 31°46' E 120°57'0 0.2
2014-Nov-20 02:33N 31°46' E 120°57'0 0.0
2014-Nov-20 01:32N 31°46' E 120°57'0 0.0
2014-Nov-20 00:26N 31°46' E 120°57'1 1.5
2014-Nov-19 23:33N 31°47' E 120°58'4 3.7
2014-Nov-19 22:31N 31°47' E 121°03'0 0.1
2014-Nov-19 21:33N 31°47' E 121°03'0 0.0
2014-Nov-19 20:33N 31°47' E 121°03'0 0.0
2014-Nov-19 19:29N 31°47' E 121°03'0 0.0
2014-Nov-19 18:29N 31°47' E 121°03'0 0.0
2014-Nov-19 13:21N 31°47' E 121°03'0 0.0
2014-Nov-19 12:20N 31°47' E 121°03'0 0.0
2014-Nov-19 11:32N 31°47' E 121°03'0 0.0
2014-Nov-19 10:31N 31°47' E 121°03'0 0.0
2014-Nov-19 09:04N 31°47' E 121°03'0 0.0
2014-Nov-19 08:33N 31°47' E 121°03'0 0.0
2014-Nov-19 07:24N 31°47' E 121°03'0 0.0
2014-Nov-19 05:11N 31°47' E 121°03'0 0.0
2014-Nov-19 04:29N 31°47' E 121°03'0 0.0
2014-Nov-19 03:25N 31°47' E 121°03'0 0.0
2014-Nov-19 02:31N 31°47' E 121°03'0 0.0
2014-Nov-19 01:33N 31°47' E 121°03'0 0.1
2014-Nov-19 00:33N 31°47' E 121°03'0 0.0
2014-Nov-18 23:33N 31°47' E 121°03'0 0.0
2014-Nov-18 22:32N 31°47' E 121°03'0 0.0
2014-Nov-18 21:32N 31°47' E 121°03'0 0.0
2014-Nov-18 20:31N 31°47' E 121°03'0 0.0
2014-Nov-18 19:31N 31°47' E 121°03'0 0.0
2014-Nov-18 18:33N 31°47' E 121°03'3 2.5
2014-Nov-18 17:33N 31°45' E 121°05'1212.0
2014-Nov-18 16:33N 31°38' E 121°16'1211.9
2014-Nov-18 15:33N 31°30' E 121°26'8 8.0
2014-Nov-18 14:33N 31°24' E 121°33'1010.5
2014-Nov-18 13:33N 31°19' E 121°44'1010.2
2014-Nov-18 12:33N 31°16' E 121°55'1010.2
2014-Nov-18 11:33N 31°13' E 122°06'1010.1
2014-Nov-18 10:33N 31°08' E 122°16'8 8.2
2014-Nov-18 09:33N 31°06' E 122°25'162 7.5
2014-Nov-17 12:00N 28°24' E 122°12'8610.8 010 / 401025.3 5.4 16.0 8.417.2
2014-Nov-17 04:00N 27°12' E 121°18'137 8.0 020 / 481023.4 1.1 17.511.121.0
2014-Nov-16 11:00N 25°18' E 119°54'55 9.8 030 / 451018.1 5.4 20.017.6
2014-Nov-16 05:21N 24°36' E 119°14'19 9.9
2014-Nov-16 03:25N 24°24' E 118°58'4110.0
2014-Nov-15 23:20N 23°59' E 118°23'1910.4
2014-Nov-15 21:29N 23°47' E 118°06'1011.0
2014-Nov-15 20:33N 23°41' E 117°57'269 9.6
2014-Nov-14 16:33N 21°45' E 113°34'1110.5
2014-Nov-14 15:30N 21°45' E 113°22'9 9.6
2014-Nov-14 14:33N 21°50' E 113°13'7 3.3
2014-Nov-14 12:33N 21°57' E 113°14'0 0.0
2014-Nov-14 11:33N 21°57' E 113°14'0 0.0
2014-Nov-14 10:33N 21°57' E 113°14'0 0.2
2014-Nov-14 09:30N 21°56' E 113°14'0 0.0
2014-Nov-14 08:32N 21°56' E 113°14'0 0.2
2014-Nov-14 07:33N 21°57' E 113°14'0 0.0
2014-Nov-14 06:33N 21°57' E 113°14'0 0.0
2014-Nov-14 05:33N 21°57' E 113°14'0 0.0
2014-Nov-14 04:33N 21°57' E 113°14'0 0.0
2014-Nov-14 03:33N 21°57' E 113°14'0 0.0
2014-Nov-14 02:33N 21°57' E 113°14'0 0.0
2014-Nov-14 01:33N 21°57' E 113°14'0 0.0
2014-Nov-14 00:33N 21°57' E 113°14'0 0.0
2014-Nov-13 23:33N 21°57' E 113°14'0 0.0
2014-Nov-13 22:34N 21°57' E 113°14'0 0.0
2014-Nov-13 21:33N 21°57' E 113°14'0 0.0
2014-Nov-13 20:33N 21°57' E 113°14'0 0.0
2014-Nov-13 19:34N 21°57' E 113°14'0 0.0
2014-Nov-13 18:33N 21°57' E 113°14'0 0.0
2014-Nov-13 17:33N 21°57' E 113°14'0 0.0
2014-Nov-13 16:33N 21°57' E 113°14'0 0.0
2014-Nov-13 15:34N 21°57' E 113°14'0 0.0
2014-Nov-13 14:33N 21°57' E 113°14'0 0.0
2014-Nov-13 13:33N 21°57' E 113°14'1 0.7
2014-Nov-13 12:33N 21°56' E 113°13'7 7.2
2014-Nov-13 11:33N 21°49' E 113°14'  
Track history (hours):
 
Tides and Currents Weather Stations Pressure Air Temp Water Temp Dewpoint Dewpoint Depression Visibility Wind Speed Wind Dir Waves Ship Positions

Poplar Arrow

Last reported at 2014-Nov-23 09:33 UTC. Time now 2014-Nov-24 04:07 UTC.
Position N 31°05' E 122°30'.

Length 190 m; draft 8.4 m.

Type: Cargo ship. MMSI: 311744000.

Date/timePositionNaut miles runAvg speedWind from/ knotsBaromVisibWave heightAir tempDewpointWater temp
2014-Nov-23 09:33N 31°05' E 122°30'1212.0
2014-Nov-23 08:33N 31°07' E 122°16'1414.3
2014-Nov-23 07:34N 31°14' E 122°02'1414.1
2014-Nov-23 06:33N 31°18' E 121°46'1212.0
2014-Nov-23 05:33N 31°24' E 121°34'7 6.8
2014-Nov-23 04:33N 31°28' E 121°27'10 9.6
2014-Nov-23 03:33N 31°34' E 121°19'1212.2
2014-Nov-23 02:33N 31°42' E 121°08'7 7.0
2014-Nov-23 01:33N 31°47' E 121°02'0 0.0
2014-Nov-23 00:23N 31°47' E 121°02'0 0.0
2014-Nov-22 23:17N 31°47' E 121°02'0 0.0
2014-Nov-22 22:31N 31°47' E 121°02'0 0.0
2014-Nov-22 21:25N 31°47' E 121°02'0 0.0
2014-Nov-22 20:18N 31°47' E 121°02'0 0.1
2014-Nov-22 19:30N 31°47' E 121°02'0 0.0
2014-Nov-22 18:30N 31°47' E 121°02'0 0.0
2014-Nov-22 17:29N 31°47' E 121°02'0 0.0
2014-Nov-22 16:14N 31°47' E 121°02'0 0.0
2014-Nov-22 11:23N 31°47' E 121°02'0 0.1
2014-Nov-22 10:23N 31°47' E 121°02'0 0.1
2014-Nov-22 09:32N 31°47' E 121°02'4 3.8
2014-Nov-22 08:33N 31°47' E 120°57'1 0.7
2014-Nov-22 07:30N 31°46' E 120°57'0 0.0
2014-Nov-22 04:28N 31°46' E 120°57'0 0.0
2014-Nov-22 03:33N 31°46' E 120°57'0 0.0
2014-Nov-22 02:33N 31°46' E 120°57'0 0.0
2014-Nov-22 01:27N 31°46' E 120°57'0 0.0
2014-Nov-22 00:32N 31°46' E 120°57'0 0.0
2014-Nov-21 23:32N 31°46' E 120°57'0 0.0
2014-Nov-21 22:25N 31°46' E 120°57'0 0.0
2014-Nov-21 21:31N 31°46' E 120°57'0 0.0
2014-Nov-21 20:06N 31°46' E 120°57'0 0.0
2014-Nov-21 19:24N 31°46' E 120°57'0 0.0
2014-Nov-21 18:30N 31°46' E 120°57'0 0.0
2014-Nov-21 17:32N 31°46' E 120°57'0 0.0
2014-Nov-21 16:23N 31°46' E 120°57'0 0.0
2014-Nov-21 15:31N 31°46' E 120°57'0 0.0
2014-Nov-21 14:28N 31°46' E 120°57'0 0.0
2014-Nov-21 13:24N 31°46' E 120°57'0 0.0
2014-Nov-21 12:33N 31°46' E 120°57'0 0.0
2014-Nov-21 11:33N 31°46' E 120°57'0 0.0
2014-Nov-21 10:29N 31°46' E 120°57'0 0.0
2014-Nov-21 09:29N 31°46' E 120°57'0 0.0
2014-Nov-21 08:31N 31°46' E 120°57'0 0.0
2014-Nov-21 07:28N 31°46' E 120°57'0 0.0
2014-Nov-21 06:27N 31°46' E 120°57'0 0.0
2014-Nov-21 05:33N 31°46' E 120°57'0 0.0
2014-Nov-21 04:29N 31°46' E 120°57'0 0.0
2014-Nov-21 03:29N 31°46' E 120°57'0 0.0
2014-Nov-21 02:32N 31°46' E 120°57'0 0.0
2014-Nov-21 01:31N 31°46' E 120°57'0 0.0
2014-Nov-21 00:25N 31°46' E 120°57'0 0.0
2014-Nov-20 23:33N 31°46' E 120°57'0 0.0
2014-Nov-20 22:33N 31°46' E 120°57'0 0.0
2014-Nov-20 21:29N 31°46' E 120°57'0 0.0
2014-Nov-20 20:29N 31°46' E 120°57'0 0.0
2014-Nov-20 19:22N 31°46' E 120°57'0 0.0
2014-Nov-20 18:28N 31°46' E 120°57'0 0.0
2014-Nov-20 17:31N 31°46' E 120°57'0 0.0
2014-Nov-20 16:30N 31°46' E 120°57'0 0.0
2014-Nov-20 15:33N 31°46' E 120°57'0 0.0
2014-Nov-20 14:32N 31°46' E 120°57'0 0.0
2014-Nov-20 13:26N 31°46' E 120°57'0 0.0
2014-Nov-20 12:29N 31°46' E 120°57'0 0.0
2014-Nov-20 11:31N 31°46' E 120°57'0 0.0
2014-Nov-20 10:28N 31°46' E 120°57'0 0.0
2014-Nov-20 09:34N 31°46' E 120°57'0 0.0
2014-Nov-20 08:30N 31°46' E 120°57'0 0.2
2014-Nov-20 07:23N 31°46' E 120°57'0 0.0
2014-Nov-20 06:31N 31°46' E 120°57'0 0.0
2014-Nov-20 05:13N 31°46' E 120°57'0 0.0
2014-Nov-20 04:21N 31°46' E 120°57'0 0.0
2014-Nov-20 03:27N 31°46' E 120°57'0 0.2
2014-Nov-20 02:33N 31°46' E 120°57'0 0.0
2014-Nov-20 01:32N 31°46' E 120°57'0 0.0
2014-Nov-20 00:26N 31°46' E 120°57'1 1.5
2014-Nov-19 23:33N 31°47' E 120°58'4 3.7
2014-Nov-19 22:31N 31°47' E 121°03'0 0.1
2014-Nov-19 21:33N 31°47' E 121°03'0 0.0
2014-Nov-19 20:33N 31°47' E 121°03'0 0.0
2014-Nov-19 19:29N 31°47' E 121°03'0 0.0
2014-Nov-19 18:29N 31°47' E 121°03'0 0.0
2014-Nov-19 13:21N 31°47' E 121°03'0 0.0
2014-Nov-19 12:20N 31°47' E 121°03'0 0.0
2014-Nov-19 11:32N 31°47' E 121°03'0 0.0
2014-Nov-19 10:31N 31°47' E 121°03'0 0.0
2014-Nov-19 09:04N 31°47' E 121°03'0 0.0
2014-Nov-19 08:33N 31°47' E 121°03'0 0.0
2014-Nov-19 07:24N 31°47' E 121°03'0 0.0
2014-Nov-19 05:11N 31°47' E 121°03'0 0.0
2014-Nov-19 04:29N 31°47' E 121°03'0 0.0
2014-Nov-19 03:25N 31°47' E 121°03'0 0.0
2014-Nov-19 02:31N 31°47' E 121°03'0 0.0
2014-Nov-19 01:33N 31°47' E 121°03'0 0.1
2014-Nov-19 00:33N 31°47' E 121°03'0 0.0
2014-Nov-18 23:33N 31°47' E 121°03'0 0.0
2014-Nov-18 22:32N 31°47' E 121°03'0 0.0
2014-Nov-18 21:32N 31°47' E 121°03'0 0.0
2014-Nov-18 20:31N 31°47' E 121°03'0 0.0
2014-Nov-18 19:31N 31°47' E 121°03'0 0.0
2014-Nov-18 18:33N 31°47' E 121°03'3 2.5
2014-Nov-18 17:33N 31°45' E 121°05'1212.0
2014-Nov-18 16:33N 31°38' E 121°16'1211.9
2014-Nov-18 15:33N 31°30' E 121°26'8 8.0
2014-Nov-18 14:33N 31°24' E 121°33'1010.5
2014-Nov-18 13:33N 31°19' E 121°44'1010.2
2014-Nov-18 12:33N 31°16' E 121°55'1010.2
2014-Nov-18 11:33N 31°13' E 122°06'1010.1
2014-Nov-18 10:33N 31°08' E 122°16'8 8.2
2014-Nov-18 09:33N 31°06' E 122°25'162 7.5
2014-Nov-17 12:00N 28°24' E 122°12'8610.8 010 / 401025.3 5.4 16.0 8.417.2
2014-Nov-17 04:00N 27°12' E 121°18'137 8.0 020 / 481023.4 1.1 17.511.121.0
2014-Nov-16 11:00N 25°18' E 119°54'55 9.8 030 / 451018.1 5.4 20.017.6
2014-Nov-16 05:21N 24°36' E 119°14'19 9.9
2014-Nov-16 03:25N 24°24' E 118°58'4110.0
2014-Nov-15 23:20N 23°59' E 118°23'1910.4
2014-Nov-15 21:29N 23°47' E 118°06'1011.0
2014-Nov-15 20:33N 23°41' E 117°57'269 9.6
2014-Nov-14 16:33N 21°45' E 113°34'1110.5
2014-Nov-14 15:30N 21°45' E 113°22'9 9.6
2014-Nov-14 14:33N 21°50' E 113°13'7 3.3
2014-Nov-14 12:33N 21°57' E 113°14'0 0.0
2014-Nov-14 11:33N 21°57' E 113°14'0 0.0
2014-Nov-14 10:33N 21°57' E 113°14'0 0.2
2014-Nov-14 09:30N 21°56' E 113°14'0 0.0
2014-Nov-14 08:32N 21°56' E 113°14'0 0.2
2014-Nov-14 07:33N 21°57' E 113°14'0 0.0
2014-Nov-14 06:33N 21°57' E 113°14'0 0.0
2014-Nov-14 05:33N 21°57' E 113°14'0 0.0
2014-Nov-14 04:33N 21°57' E 113°14'0 0.0
2014-Nov-14 03:33N 21°57' E 113°14'0 0.0
2014-Nov-14 02:33N 21°57' E 113°14'0 0.0
2014-Nov-14 01:33N 21°57' E 113°14'0 0.0
2014-Nov-14 00:33N 21°57' E 113°14'0 0.0
2014-Nov-13 23:33N 21°57' E 113°14'0 0.0
2014-Nov-13 22:34N 21°57' E 113°14'0 0.0
2014-Nov-13 21:33N 21°57' E 113°14'0 0.0
2014-Nov-13 20:33N 21°57' E 113°14'0 0.0
2014-Nov-13 19:34N 21°57' E 113°14'0 0.0
2014-Nov-13 18:33N 21°57' E 113°14'0 0.0
2014-Nov-13 17:33N 21°57' E 113°14'0 0.0
2014-Nov-13 16:33N 21°57' E 113°14'0 0.0
2014-Nov-13 15:34N 21°57' E 113°14'0 0.0
2014-Nov-13 14:33N 21°57' E 113°14'0 0.0
2014-Nov-13 13:33N 21°57' E 113°14'1 0.7
2014-Nov-13 12:33N 21°56' E 113°13'7 7.2
2014-Nov-13 11:33N 21°49' E 113°14'  

Dump ship's entire track history